Time;durP1;ratioP1;P1;durP2;ratioP2;P2;SDS_P1;SDS_P2;PMS_P1;PMS_P2;Temp;Humidity;BMP_temperature;BMP_pressure;BME280_temperature;BME280_humidity;BME280_pressure;Samples;Min_cycle;Max_cycle;Signal;HPM_P1;HPM_P2
2022/11/05 00:10:36;;;;;;;3.92;2.13;;;;;;;12.31;68.99;101596.25;5012619;28;20129;-41
2022/11/05 00:18:30;;;;;;;9.98;3.17;;;;;;;12.39;68.60;101604.22;5012821;28;19952;-42
2022/11/05 00:20:56;;;;;;;10.55;3.92;;;;;;;12.37;68.69;101609.44;5011865;28;20455;-45
2022/11/05 00:26:08;;;;;;;11.13;3.58;;;;;;;12.37;68.23;101619.03;5012090;28;20037;-45
2022/11/05 00:28:35;;;;;;;8.82;3.70;;;;;;;12.39;68.21;101623.41;5012130;28;20021;-45
2022/11/05 00:31:08;;;;;;;10.65;3.70;;;;;;;12.42;68.27;101622.59;5012163;28;20372;-46
2022/11/05 00:33:35;;;;;;;8.73;3.20;;;;;;;12.39;68.05;101628.63;5012367;28;20036;-46
2022/11/05 00:36:05;;;;;;;9.27;2.95;;;;;;;12.42;67.67;101633.06;5012328;28;20502;-47
2022/11/05 00:38:31;;;;;;;8.90;2.85;;;;;;;12.37;67.47;101624.25;5012415;28;20463;-45
2022/11/05 00:40:56;;;;;;;8.68;2.90;;;;;;;12.37;67.24;101629.47;5012148;28;20105;-45
2022/11/05 00:46:05;;;;;;;5.30;2.47;;;;;;;12.29;66.78;101626.72;5012374;28;20129;-46
2022/11/05 00:51:14;;;;;;;5.72;2.67;;;;;;;12.18;66.19;101634.38;5011951;28;20091;-44
2022/11/05 00:53:39;;;;;;;6.07;2.30;;;;;;;12.10;66.16;101629.84;5011551;28;20400;-49
2022/11/05 00:56:05;;;;;;;10.60;2.50;;;;;;;11.97;66.00;101636.56;5012380;28;20033;-46
2022/11/05 00:58:30;;;;;;;7.93;2.60;;;;;;;11.91;65.94;101635.56;5010927;28;20026;-45
2022/11/05 01:00:57;;;;;;;6.60;2.40;;;;;;;11.85;66.02;101635.44;5011503;28;20048;-47
2022/11/05 01:03:26;;;;;;;5.68;2.50;;;;;;;11.75;66.09;101636.97;5011464;28;20107;-45
2022/11/05 01:05:57;;;;;;;7.25;2.30;;;;;;;11.66;66.19;101647.19;5011652;28;20371;-44
2022/11/05 01:08:26;;;;;;;4.60;2.35;;;;;;;11.57;66.32;101641.78;5011323;28;20030;-45
2022/11/05 01:10:54;;;;;;;5.05;2.40;;;;;;;11.50;66.23;101638.16;5011096;28;20056;-46
2022/11/05 01:13:27;;;;;;;5.65;2.55;;;;;;;11.41;66.62;101643.16;5011209;28;20060;-46
2022/11/05 01:15:53;;;;;;;5.65;2.45;;;;;;;11.32;66.77;101645.59;5011479;28;20128;-44
2022/11/05 01:18:20;;;;;;;5.22;2.60;;;;;;;11.30;66.79;101644.66;5010990;28;20401;-44
2022/11/05 01:20:45;;;;;;;7.38;2.30;;;;;;;11.26;66.96;101646.34;5011200;28;20048;-44
2022/11/05 01:23:11;;;;;;;8.40;2.50;;;;;;;11.21;67.42;101641.84;5011350;28;20029;-45
2022/11/05 01:25:36;;;;;;;5.53;2.30;;;;;;;11.16;67.04;101639.13;5011702;28;20061;-45
2022/11/05 01:28:03;;;;;;;5.40;2.20;;;;;;;11.16;67.36;101638.25;5011537;28;20494;-45
2022/11/05 01:30:28;;;;;;;5.60;2.30;;;;;;;11.08;67.30;101637.19;5010990;28;20061;-46
2022/11/05 01:32:53;;;;;;;5.97;2.30;;;;;;;11.06;67.56;101638.88;5010810;28;20068;-45
2022/11/05 01:35:19;;;;;;;4.97;2.20;;;;;;;11.05;66.99;101635.38;5011074;28;20022;-45
2022/11/05 01:37:45;;;;;;;5.63;2.20;;;;;;;11.04;67.01;101632.75;5011049;28;20030;-45
2022/11/05 01:40:17;;;;;;;3.75;1.90;;;;;;;11.01;66.81;101637.88;5010600;28;20108;-47
2022/11/05 01:42:43;;;;;;;6.22;2.08;;;;;;;10.96;67.13;101640.41;5010477;28;20026;-45
2022/11/05 01:45:22;;;;;;;4.82;2.17;;;;;;;10.92;67.35;101636.81;5009531;28;20315;-45
2022/11/05 01:48:10;;;;;;;6.82;2.10;;;;;;;10.92;67.66;101631.59;5010927;28;20065;-44
2022/11/05 01:50:43;;;;;;;6.95;2.25;;;;;;;10.97;67.71;101634.34;5010460;28;20474;-47
2022/11/05 01:53:43;;;;;;;8.32;2.50;;;;;;;10.94;67.76;101640.34;5010591;28;20344;-44
2022/11/05 01:56:16;;;;;;;5.68;2.20;;;;;;;10.96;67.83;101643.91;5010731;28;20026;-44
2022/11/05 01:58:50;;;;;;;6.93;2.40;;;;;;;10.92;68.22;101652.47;5011086;28;20025;-45
2022/11/05 02:01:16;;;;;;;7.03;2.40;;;;;;;10.89;67.72;101644.59;5010275;28;20106;-46
2022/11/05 02:03:43;;;;;;;8.90;2.15;;;;;;;10.83;68.16;101648.78;5010369;28;20041;-47
2022/11/05 02:06:10;;;;;;;7.50;2.63;;;;;;;10.86;68.35;101652.31;5010401;28;20022;-46
2022/11/05 02:08:56;;;;;;;5.18;2.22;;;;;;;10.94;68.60;101658.63;5009036;28;20026;-48
2022/11/05 02:11:22;;;;;;;10.07;2.60;;;;;;;10.92;68.56;101644.63;5010138;28;20517;-43
2022/11/05 02:13:47;;;;;;;6.88;2.03;;;;;;;11.12;68.42;101639.91;5010419;28;20116;-45
2022/11/05 02:16:17;;;;;;;4.55;2.10;;;;;;;11.26;68.73;101651.56;5010363;28;20109;-44
2022/11/05 02:19:21;;;;;;;4.65;2.10;;;;;;;11.08;69.26;101650.25;5010600;28;20034;-44
2022/11/05 02:22:01;;;;;;;6.07;2.20;;;;;;;11.35;68.80;101659.56;4986808;28;20049;-45
2022/11/05 02:24:41;;;;;;;4.47;1.65;;;;;;;11.67;68.02;101652.47;5010295;28;20084;-43
2022/11/05 02:27:25;;;;;;;6.00;1.70;;;;;;;11.56;67.60;101659.19;5012271;28;20105;-47
2022/11/05 02:30:02;;;;;;;3.22;1.40;;;;;;;11.89;67.49;101664.28;5011524;28;20026;-44
2022/11/05 02:32:50;;;;;;;2.83;1.40;;;;;;;11.79;65.65;101675.38;5012457;28;20022;-45
2022/11/05 02:35:34;;;;;;;4.15;1.48;;;;;;;12.15;65.43;101664.78;5010729;28;20026;-45
2022/11/05 02:38:07;;;;;;;3.88;1.45;;;;;;;12.19;65.38;101658.78;5010644;28;20033;-45
2022/11/05 02:40:49;;;;;;;4.07;1.60;;;;;;;12.24;65.08;101661.47;5010758;28;20030;-44
2022/11/05 02:43:23;;;;;;;5.60;1.40;;;;;;;12.05;64.85;101660.25;5010390;28;20079;-47
2022/11/05 02:46:13;;;;;;;3.83;1.25;;;;;;;12.24;65.09;101657.13;5009950;28;20054;-45
2022/11/05 02:49:03;;;;;;;3.80;1.48;;;;;;;12.19;65.34;101656.16;5010650;28;20034;-43
2022/11/05 02:51:51;;;;;;;4.95;1.30;;;;;;;12.24;65.64;101653.63;5010353;28;20492;-46
2022/11/05 02:54:36;;;;;;;2.42;1.30;;;;;;;12.33;65.96;101643.34;5010117;28;20029;-42
2022/11/05 02:57:03;;;;;;;4.55;1.67;;;;;;;12.17;66.41;101658.75;5009785;28;20030;-44
2022/11/05 02:59:28;;;;;;;5.82;1.42;;;;;;;12.10;67.49;101663.81;5010006;28;20025;-44
2022/11/05 03:01:55;;;;;;;4.20;1.65;;;;;;;12.26;67.37;101670.25;5009806;28;20410;-45
2022/11/05 03:04:22;;;;;;;6.53;1.92;;;;;;;12.09;67.57;101665.53;5010044;28;20138;-45
2022/11/05 03:06:54;;;;;;;6.68;2.03;;;;;;;12.17;67.55;101657.88;5010352;28;20556;-47
2022/11/05 03:09:22;;;;;;;5.03;1.90;;;;;;;12.11;68.35;101661.25;5009432;28;20061;-47
2022/11/05 03:12:06;;;;;;;4.38;1.70;;;;;;;12.04;69.08;101648.91;5010987;28;20044;-46
2022/11/05 03:14:50;;;;;;;4.20;1.70;;;;;;;12.14;68.51;101656.06;5011797;28;20018;-46
2022/11/05 03:17:34;;;;;;;4.83;1.80;;;;;;;12.24;68.66;101641.44;5010701;28;20030;-45
2022/11/05 03:20:15;;;;;;;4.25;1.80;;;;;;;12.33;68.45;101635.50;5010184;28;20033;-45
2022/11/05 03:22:48;;;;;;;5.35;1.85;;;;;;;12.33;69.01;101630.25;5008853;28;20026;-45
2022/11/05 03:25:21;;;;;;;4.93;1.88;;;;;;;12.16;69.51;101640.41;5010411;28;20017;-45
2022/11/05 03:27:51;;;;;;;3.35;1.92;;;;;;;12.26;70.00;101641.47;5010557;28;20037;-46
2022/11/05 03:30:17;;;;;;;4.93;2.00;;;;;;;12.23;69.54;101642.28;5009845;28;20540;-45
2022/11/05 03:32:52;;;;;;;4.80;2.00;;;;;;;12.20;69.37;101640.50;5009086;28;20069;-49
2022/11/05 03:35:40;;;;;;;4.55;2.00;;;;;;;12.18;68.98;101644.84;5010406;28;20018;-49
2022/11/05 03:38:15;;;;;;;5.07;2.05;;;;;;;12.08;69.13;101641.97;5009659;28;20506;-46
2022/11/05 03:40:43;;;;;;;4.55;2.08;;;;;;;12.12;69.24;101643.84;5009471;28;20029;-47
2022/11/05 03:43:08;;;;;;;4.20;2.00;;;;;;;12.17;68.92;101643.06;5012471;28;20040;-46
2022/11/05 03:45:43;;;;;;;6.63;2.15;;;;;;;12.10;69.84;101641.19;5013222;28;20026;-44
2022/11/05 03:48:11;;;;;;;4.47;1.83;;;;;;;12.15;69.50;101646.47;5012799;28;20050;-46
2022/11/05 03:51:15;;;;;;;4.85;1.90;;;;;;;12.12;69.86;101646.44;5012675;28;20459;-43
2022/11/05 03:53:50;;;;;;;4.45;1.95;;;;;;;12.19;69.64;101649.22;5011230;28;20030;-45
2022/11/05 03:56:29;;;;;;;5.82;2.20;;;;;;;12.10;69.87;101645.53;5012879;28;20040;-46
2022/11/05 03:58:55;;;;;;;6.35;2.20;;;;;;;12.15;69.47;101651.72;5012827;28;20041;-46
2022/11/05 04:01:22;;;;;;;5.00;1.92;;;;;;;12.10;69.55;101646.41;5012752;28;20574;-44
2022/11/05 04:03:47;;;;;;;4.25;2.00;;;;;;;12.08;69.22;101645.47;5012830;28;20157;-45
2022/11/05 04:14:25;;;;;;;4.77;2.23;;;;;;;11.84;68.32;101646.72;5012416;28;20099;-45
2022/11/05 04:17:05;;;;;;;3.92;2.30;;;;;;;11.68;69.00;101648.13;5012756;28;20041;-45
2022/11/05 04:25:00;;;;;;;4.60;2.33;;;;;;;11.52;68.18;101659.09;5012735;28;20583;-46
2022/11/05 04:27:26;;;;;;;3.90;2.28;;;;;;;11.47;68.17;101656.34;5012538;28;20022;-46
2022/11/05 04:32:35;;;;;;;6.13;2.30;;;;;;;11.32;68.46;101667.34;5012197;28;20077;-49
2022/11/05 04:35:00;;;;;;;6.05;2.50;;;;;;;11.23;68.95;101661.03;5012540;28;20026;-45
2022/11/05 04:37:25;;;;;;;5.10;2.60;;;;;;;11.23;68.91;101663.63;5012319;28;20500;-46
2022/11/05 04:39:51;;;;;;;7.15;2.60;;;;;;;11.17;69.17;101658.28;5011854;28;20030;-47
2022/11/05 04:42:16;;;;;;;5.50;2.42;;;;;;;11.12;68.85;101673.81;5011420;28;20106;-47
2022/11/05 04:44:41;;;;;;;6.53;2.42;;;;;;;11.19;69.32;101667.91;5012067;28;20018;-46
2022/11/05 04:47:06;;;;;;;6.28;2.40;;;;;;;11.21;68.78;101667.97;5011639;28;20041;-47
2022/11/05 04:49:32;;;;;;;4.72;2.55;;;;;;;11.16;69.82;101665.22;5011934;28;20104;-48
2022/11/05 04:51:57;;;;;;;4.18;2.47;;;;;;;11.14;69.35;101671.25;5011735;28;20553;-47
2022/11/05 04:54:22;;;;;;;4.50;2.25;;;;;;;11.09;69.25;101665.06;5010521;28;20407;-44
2022/11/05 04:56:48;;;;;;;6.35;2.53;;;;;;;11.18;68.99;101660.94;5011736;28;20080;-45
2022/11/05 04:59:13;;;;;;;5.70;2.70;;;;;;;11.22;68.93;101667.97;5011766;28;20032;-46
2022/11/05 05:01:38;;;;;;;6.07;2.85;;;;;;;11.27;69.70;101676.81;5011480;28;20057;-46
2022/11/05 05:04:03;;;;;;;5.28;2.75;;;;;;;11.35;70.24;101674.34;5010377;28;20064;-48
2022/11/05 05:06:29;;;;;;;5.35;2.70;;;;;;;11.38;70.33;101677.94;5012036;28;20372;-45
2022/11/05 05:08:54;;;;;;;4.72;2.63;;;;;;;11.57;70.12;101671.41;5011804;28;20025;-45
2022/11/05 05:11:21;;;;;;;7.35;2.78;;;;;;;11.57;69.64;101674.00;5011012;28;20032;-44
2022/11/05 05:13:46;;;;;;;5.45;2.67;;;;;;;11.72;70.00;101673.44;5011432;28;20041;-47
2022/11/05 05:16:23;;;;;;;6.60;2.55;;;;;;;11.70;69.81;101672.56;5011639;28;20022;-47
2022/11/05 05:18:49;;;;;;;6.07;2.70;;;;;;;11.72;69.38;101681.28;5011386;28;20478;-46
2022/11/05 05:24:00;;;;;;;4.65;2.58;;;;;;;11.73;68.68;101678.75;5011481;28;20083;-44
2022/11/05 05:26:26;;;;;;;6.75;3.05;;;;;;;11.70;68.40;101683.88;5011335;28;20397;-47
2022/11/05 05:28:52;;;;;;;5.63;2.85;;;;;;;11.66;68.54;101679.41;5010990;28;20037;-45
2022/11/05 05:31:18;;;;;;;4.28;2.53;;;;;;;11.64;68.30;101675.03;5010862;28;20474;-50
2022/11/05 05:33:43;;;;;;;6.78;3.00;;;;;;;11.54;68.32;101671.31;5011265;28;20032;-47
2022/11/05 05:36:08;;;;;;;5.53;2.83;;;;;;;11.53;68.18;101680.00;5011104;28;20044;-44
2022/11/05 05:38:34;;;;;;;6.88;2.90;;;;;;;11.44;68.01;101677.19;5011276;28;20034;-45
2022/11/05 05:40:59;;;;;;;5.78;2.85;;;;;;;11.47;68.14;101676.34;5010839;28;20022;-48
2022/11/05 05:43:31;;;;;;;6.82;2.75;;;;;;;11.43;68.16;101677.16;5011136;28;20482;-44
2022/11/05 05:46:03;;;;;;;5.10;2.80;;;;;;;11.33;68.02;101676.06;5009957;28;20034;-48
2022/11/05 05:48:29;;;;;;;5.68;2.97;;;;;;;11.28;67.97;101678.56;5011126;28;20025;-45
2022/11/05 05:50:59;;;;;;;5.15;2.60;;;;;;;11.25;68.24;101682.84;5010491;28;20032;-45
2022/11/05 05:53:24;;;;;;;7.75;3.05;;;;;;;11.15;68.28;101684.34;5010772;28;20037;-45
2022/11/05 05:55:52;;;;;;;7.80;3.20;;;;;;;11.06;68.96;101684.13;5010907;28;20378;-46
2022/11/05 05:58:18;;;;;;;4.60;2.97;;;;;;;11.11;68.58;101690.31;5010746;28;20058;-41
2022/11/05 06:00:43;;;;;;;7.68;3.30;;;;;;;11.08;68.69;101689.38;5011026;28;20045;-45
2022/11/05 06:03:08;;;;;;;8.38;3.40;;;;;;;11.08;69.26;101682.44;5025841;28;20029;-44
2022/11/05 06:05:34;;;;;;;6.35;3.25;;;;;;;11.07;69.55;101688.50;5010623;28;20053;-46
2022/11/05 06:07:59;;;;;;;6.07;3.38;;;;;;;11.13;69.70;101692.97;5009471;28;20558;-49
2022/11/05 06:10:24;;;;;;;5.97;3.40;;;;;;;11.25;69.01;101695.88;5010606;28;20091;-47
2022/11/05 06:12:50;;;;;;;7.35;3.30;;;;;;;11.15;69.01;101692.19;5011612;28;20028;-49
2022/11/05 06:15:15;;;;;;;5.97;3.28;;;;;;;11.14;68.79;101695.63;5011570;28;20394;-47
2022/11/05 06:17:44;;;;;;;8.63;3.70;;;;;;;11.06;68.94;101694.56;5012100;28;20040;-45
2022/11/05 06:20:11;;;;;;;7.03;3.85;;;;;;;11.01;69.42;101693.56;5011898;28;20091;-46
2022/11/05 06:22:36;;;;;;;6.35;3.70;;;;;;;11.06;69.44;101698.88;5013088;28;20112;-48
2022/11/05 06:25:01;;;;;;;6.85;3.75;;;;;;;11.02;69.36;101694.44;5019852;28;20042;-46
2022/11/05 06:27:30;;;;;;;8.88;4.20;;;;;;;10.98;69.74;101698.69;5018647;28;20030;-51
2022/11/05 06:29:55;;;;;;;7.32;4.20;;;;;;;11.02;69.72;101702.28;5013004;28;20040;-44
2022/11/05 06:32:20;;;;;;;9.30;4.45;;;;;;;11.03;70.26;101702.31;5010715;28;20061;-47
2022/11/05 06:34:46;;;;;;;8.23;4.70;;;;;;;11.09;70.42;101704.19;5010357;28;20223;-46
2022/11/05 06:37:11;;;;;;;8.73;4.75;;;;;;;11.09;70.60;101704.19;5010547;28;20021;-46
2022/11/05 06:39:37;;;;;;;7.68;5.13;;;;;;;11.20;70.27;101714.06;5010411;28;20041;-45
2022/11/05 06:42:02;;;;;;;9.15;5.00;;;;;;;11.32;69.98;101700.41;5009985;28;20018;-43
2022/11/05 06:44:27;;;;;;;9.63;5.32;;;;;;;11.34;70.41;101701.34;5010162;28;20100;-45
2022/11/05 06:46:53;;;;;;;10.70;5.40;;;;;;;11.46;70.61;101706.84;5010302;28;20029;-49
2022/11/05 06:49:18;;;;;;;9.48;5.60;;;;;;;11.54;70.37;101712.22;5010029;28;20541;-45
2022/11/05 06:51:43;;;;;;;9.60;5.97;;;;;;;11.62;70.51;101710.66;5009891;28;20022;-45
2022/11/05 06:54:09;;;;;;;10.10;5.70;;;;;;;11.74;70.55;101710.97;5009614;28;20049;-46
2022/11/05 06:56:34;;;;;;;11.25;5.63;;;;;;;11.82;69.95;101716.38;5010068;28;20478;-45
2022/11/05 06:58:59;;;;;;;9.20;5.38;;;;;;;11.80;69.80;101716.34;5010112;28;20134;-46
2022/11/05 07:01:25;;;;;;;9.38;5.35;;;;;;;11.87;69.41;101714.75;5009644;28;20029;-46
2022/11/05 07:03:50;;;;;;;8.65;5.07;;;;;;;11.85;69.28;101712.06;5009879;28;20053;-47
2022/11/05 07:06:15;;;;;;;9.40;5.32;;;;;;;11.82;69.08;101721.59;5009756;28;20060;-47
2022/11/05 07:08:41;;;;;;;11.80;5.63;;;;;;;11.71;69.61;101722.19;5009857;28;20482;-48
2022/11/05 07:11:06;;;;;;;10.85;5.65;;;;;;;11.66;69.60;101723.81;5009605;28;20033;-45
2022/11/05 07:13:32;;;;;;;11.10;5.38;;;;;;;11.73;69.46;101728.38;5009551;28;20486;-47
2022/11/05 07:15:57;;;;;;;11.80;5.70;;;;;;;11.73;69.73;101727.47;5010040;28;20092;-47
2022/11/05 07:18:23;;;;;;;11.27;5.90;;;;;;;11.74;69.83;101724.03;5014089;28;20022;-48
2022/11/05 07:20:48;;;;;;;12.15;6.05;;;;;;;11.81;69.61;101723.31;5013511;28;20033;-45
2022/11/05 07:23:14;;;;;;;11.15;6.20;;;;;;;11.74;70.03;101722.31;5013903;28;20036;-47
2022/11/05 07:25:41;;;;;;;14.65;6.07;;;;;;;11.81;69.99;101722.44;5013628;28;20018;-45
2022/11/05 07:28:07;;;;;;;10.85;5.80;;;;;;;11.88;69.99;101726.97;5013513;28;20100;-45
2022/11/05 07:30:34;;;;;;;13.15;6.20;;;;;;;11.89;69.91;101727.00;5013228;28;20022;-47
2022/11/05 07:32:59;;;;;;;10.02;6.18;;;;;;;12.00;69.79;101732.44;5013230;28;20383;-47
2022/11/05 07:35:25;;;;;;;10.65;5.53;;;;;;;12.10;69.17;101726.53;5013083;28;20029;-46
2022/11/05 07:37:52;;;;;;;10.88;6.05;;;;;;;12.05;69.30;101718.63;5013253;28;20026;-47
2022/11/05 07:40:19;;;;;;;9.52;5.97;;;;;;;12.04;69.10;101726.41;5013076;28;20057;-44
2022/11/05 07:42:47;;;;;;;10.00;5.97;;;;;;;12.05;69.29;101725.56;5013327;28;20053;-45
2022/11/05 07:45:12;;;;;;;10.30;6.00;;;;;;;12.15;69.25;101724.91;5013392;28;20206;-45
2022/11/05 07:47:43;;;;;;;9.30;5.63;;;;;;;12.20;69.16;101728.50;5013266;28;20517;-47
2022/11/05 07:50:09;;;;;;;10.02;6.15;;;;;;;12.14;69.15;101733.59;5012878;28;20104;-46
2022/11/05 07:52:34;;;;;;;11.30;6.38;;;;;;;12.13;68.57;101724.00;5011002;28;20581;-47
2022/11/05 07:54:59;;;;;;;9.27;6.20;;;;;;;12.16;68.78;101731.91;5012474;28;20022;-46
2022/11/05 07:57:25;;;;;;;11.55;6.53;;;;;;;12.03;69.22;101737.72;5027750;28;20022;-48
2022/11/05 07:59:50;;;;;;;10.27;6.72;;;;;;;12.03;69.00;101722.91;5012609;28;20036;-47
2022/11/05 08:02:15;;;;;;;11.02;6.75;;;;;;;12.06;69.49;101727.34;5012121;28;20022;-47
2022/11/05 08:04:41;;;;;;;11.18;6.40;;;;;;;12.10;69.13;101723.94;5012678;28;20014;-49
2022/11/05 08:07:07;;;;;;;11.10;6.95;;;;;;;12.06;69.30;101720.38;5012539;28;20160;-47
2022/11/05 08:09:32;;;;;;;12.68;6.40;;;;;;;12.03;68.97;101724.66;5011424;28;20026;-43
2022/11/05 08:11:58;;;;;;;12.10;6.45;;;;;;;12.13;68.89;101729.25;5012510;28;20033;-46
2022/11/05 08:14:23;;;;;;;12.30;6.68;;;;;;;12.10;69.10;101731.78;5012414;28;20033;-47
2022/11/05 08:16:48;;;;;;;10.57;6.28;;;;;;;12.09;69.53;101730.88;5012213;28;20041;-45
2022/11/05 08:19:14;;;;;;;9.98;6.60;;;;;;;12.19;69.44;101727.63;5012348;28;20059;-44
2022/11/05 08:21:39;;;;;;;13.20;6.70;;;;;;;12.36;69.23;101729.69;5012164;28;20029;-45
2022/11/05 08:24:05;;;;;;;11.32;6.40;;;;;;;12.37;69.10;101728.84;5012390;28;20022;-48
2022/11/05 08:26:30;;;;;;;10.90;6.35;;;;;;;12.43;69.22;101728.97;5012003;28;20026;-46
2022/11/05 08:28:55;;;;;;;11.30;6.18;;;;;;;12.43;68.65;101727.25;5012309;28;20026;-45
2022/11/05 08:31:21;;;;;;;11.50;6.00;;;;;;;12.50;68.65;101731.69;5011995;28;20030;-45
2022/11/05 08:33:46;;;;;;;11.85;6.32;;;;;;;12.52;68.28;101722.16;5012276;28;20087;-46
2022/11/05 08:36:11;;;;;;;9.15;6.18;;;;;;;12.55;68.34;101724.84;5012245;28;20026;-45
2022/11/05 08:38:36;;;;;;;12.32;6.30;;;;;;;12.53;68.30;101723.94;5011881;28;20030;-45
2022/11/05 08:41:02;;;;;;;10.00;6.20;;;;;;;12.59;68.52;101725.78;5011518;28;20032;-47
2022/11/05 08:43:27;;;;;;;10.80;6.40;;;;;;;12.59;69.83;101729.28;5011929;28;20088;-50
2022/11/05 08:45:53;;;;;;;9.35;6.47;;;;;;;12.94;69.44;101727.28;5012005;28;20026;-45
2022/11/05 08:48:19;;;;;;;10.38;6.03;;;;;;;13.07;69.00;101738.84;5012087;28;20021;-45
2022/11/05 08:50:46;;;;;;;10.13;5.55;;;;;;;13.20;68.45;101738.22;5011682;28;20038;-45
2022/11/05 08:53:12;;;;;;;10.73;5.43;;;;;;;13.28;68.28;101741.88;5012157;28;20486;-46
2022/11/05 08:55:38;;;;;;;10.10;5.47;;;;;;;13.44;67.86;101737.75;5011807;28;20022;-47
2022/11/05 08:58:06;;;;;;;9.30;5.13;;;;;;;13.47;67.92;101739.53;5012034;28;20033;-45
2022/11/05 09:00:34;;;;;;;9.18;5.30;;;;;;;13.68;67.53;101738.09;5011461;28;20040;-44
2022/11/05 09:03:01;;;;;;;10.15;4.80;;;;;;;13.84;66.88;101738.34;5011711;28;20032;-45
2022/11/05 09:05:28;;;;;;;11.55;5.03;;;;;;;13.86;66.19;101732.25;5011882;28;20049;-46
2022/11/05 09:07:53;;;;;;;9.35;4.60;;;;;;;14.01;66.04;101734.19;5012038;28;20079;-46
2022/11/05 09:10:19;;;;;;;9.07;4.57;;;;;;;14.15;65.90;101743.09;5011479;28;20025;-45
2022/11/05 09:12:44;;;;;;;10.77;4.68;;;;;;;14.22;64.93;101745.81;5013277;28;20029;-45
2022/11/05 09:15:10;;;;;;;9.13;4.47;;;;;;;14.07;64.50;101747.38;5013150;28;20026;-46
2022/11/05 09:17:35;;;;;;;9.13;4.57;;;;;;;14.08;65.08;101742.16;5013253;28;20493;-52
2022/11/05 09:20:02;;;;;;;9.77;4.60;;;;;;;13.94;65.30;101746.34;5014034;28;20029;-45
2022/11/05 09:22:27;;;;;;;10.23;4.60;;;;;;;14.31;64.69;101738.94;5011680;28;20061;-47
2022/11/05 09:24:52;;;;;;;9.20;4.50;;;;;;;14.15;64.75;101741.34;5011056;28;20117;-45
2022/11/05 09:27:17;;;;;;;9.38;4.15;;;;;;;14.21;64.77;101746.69;5011245;28;20100;-45
2022/11/05 09:29:43;;;;;;;8.90;4.10;;;;;;;14.33;64.48;101742.47;5010707;28;20041;-45
2022/11/05 09:32:08;;;;;;;11.88;4.32;;;;;;;14.28;64.44;101752.88;5009251;28;20088;-45
2022/11/05 09:34:34;;;;;;;9.15;4.13;;;;;;;13.88;65.44;101745.38;5011157;28;20501;-47
2022/11/05 09:37:00;;;;;;;7.32;3.78;;;;;;;14.15;65.37;101751.84;5010914;28;20482;-44
2022/11/05 09:39:25;;;;;;;6.78;3.65;;;;;;;13.96;65.09;101751.59;5010528;28;20420;-46
2022/11/05 09:41:52;;;;;;;10.05;3.58;;;;;;;14.31;64.38;101747.69;5010573;28;20025;-46
2022/11/05 09:44:37;;;;;;;10.93;3.70;;;;;;;14.15;64.32;101754.47;5010505;28;20129;-46
2022/11/05 09:47:06;;;;;;;8.27;3.38;;;;;;;14.33;64.28;101740.72;5010625;28;20021;-47
2022/11/05 09:49:43;;;;;;;7.32;3.30;;;;;;;14.59;63.24;101751.53;5009615;28;20029;-45
2022/11/05 09:52:13;;;;;;;8.40;3.30;;;;;;;14.24;64.16;101751.09;5010361;28;20033;-47
2022/11/05 09:54:39;;;;;;;7.07;3.00;;;;;;;14.28;64.16;101752.88;5010260;28;20037;-47
2022/11/05 09:57:10;;;;;;;7.88;3.10;;;;;;;14.39;63.42;101748.69;5011031;28;20021;-47
2022/11/05 09:59:53;;;;;;;8.55;3.00;;;;;;;14.55;62.22;101742.75;5025858;28;20478;-45
2022/11/05 10:02:23;;;;;;;5.25;2.90;;;;;;;14.79;62.21;101739.50;5010150;28;20318;-46
2022/11/05 10:04:54;;;;;;;8.68;3.28;;;;;;;14.95;61.12;101743.13;5010866;28;20022;-44
2022/11/05 10:07:24;;;;;;;5.82;2.90;;;;;;;14.86;61.61;101736.06;5010963;28;20030;-47
2022/11/05 10:09:58;;;;;;;7.20;3.00;;;;;;;15.06;60.86;101735.38;5010794;28;20478;-46
2022/11/05 10:12:48;;;;;;;9.20;3.10;;;;;;;15.05;60.07;101744.13;5010201;28;20029;-47
2022/11/05 10:15:21;;;;;;;10.38;3.30;;;;;;;14.84;60.21;101732.53;5010907;28;20528;-44
2022/11/05 10:17:53;;;;;;;6.93;3.20;;;;;;;14.97;60.36;101739.69;5011197;28;20026;-44
2022/11/05 10:20:34;;;;;;;6.57;3.42;;;;;;;14.93;60.98;101744.88;5010249;28;20025;-48
2022/11/05 10:23:14;;;;;;;6.50;3.60;;;;;;;14.40;61.90;101736.44;5010077;28;20157;-44
2022/11/05 10:25:44;;;;;;;8.20;3.80;;;;;;;14.15;62.67;101743.97;5010660;28;20013;-45
2022/11/05 10:28:16;;;;;;;7.30;3.70;;;;;;;14.29;62.58;101741.53;5009987;28;20037;-46
2022/11/05 10:30:48;;;;;;;10.00;3.70;;;;;;;14.41;62.08;101746.97;5009687;28;20030;-44
2022/11/05 10:33:27;;;;;;;8.07;3.80;;;;;;;14.44;62.56;101743.50;5010267;28;20109;-46
2022/11/05 10:35:56;;;;;;;8.07;3.78;;;;;;;14.67;62.22;101747.25;5010127;28;20169;-48
2022/11/05 10:38:22;;;;;;;7.75;3.72;;;;;;;14.58;61.35;101742.78;5010104;28;20045;-46
2022/11/05 10:41:02;;;;;;;6.50;3.80;;;;;;;14.77;60.97;101740.34;5009804;28;20033;-46
2022/11/05 10:43:39;;;;;;;7.78;3.85;;;;;;;14.67;60.87;101739.38;5010135;28;20025;-45
2022/11/05 10:46:28;;;;;;;7.57;3.70;;;;;;;14.92;61.11;101741.38;5008781;28;20025;-45
2022/11/05 10:49:05;;;;;;;6.22;3.20;;;;;;;15.01;60.40;101740.56;5009644;28;20018;-50
2022/11/05 10:51:32;;;;;;;9.00;3.72;;;;;;;14.89;61.08;101738.72;5010331;28;20041;-45
2022/11/05 10:54:16;;;;;;;8.98;3.50;;;;;;;14.67;61.58;101738.50;5013976;28;20029;-46
2022/11/05 10:56:41;;;;;;;7.53;3.50;;;;;;;14.55;61.31;101742.75;5014069;28;20030;-47
2022/11/05 10:59:20;;;;;;;7.63;3.42;;;;;;;14.95;60.16;101737.88;5014193;28;20048;-47
2022/11/05 11:01:46;;;;;;;5.55;2.92;;;;;;;14.85;59.71;101749.19;5013640;28;20133;-45
2022/11/05 11:04:21;;;;;;;7.35;2.88;;;;;;;14.42;60.53;101746.09;5013510;28;20097;-45
2022/11/05 11:06:52;;;;;;;7.88;3.05;;;;;;;14.39;60.74;101751.31;5014153;28;20026;-46
2022/11/05 11:09:21;;;;;;;7.47;2.80;;;;;;;14.51;61.40;101756.72;5013636;28;20029;-45
2022/11/05 11:11:55;;;;;;;5.38;2.63;;;;;;;14.79;59.48;101757.88;5013154;28;20109;-46
2022/11/05 11:14:21;;;;;;;4.95;2.28;;;;;;;14.68;60.19;101746.38;5013174;28;20112;-46
2022/11/05 11:16:50;;;;;;;6.43;2.33;;;;;;;14.84;60.34;101743.03;5013441;28;20053;-45
2022/11/05 11:19:30;;;;;;;6.35;2.42;;;;;;;14.71;60.64;101748.16;5013467;28;20029;-44
2022/11/05 11:22:04;;;;;;;7.53;2.70;;;;;;;14.66;60.89;101744.59;5013541;28;20026;-45
2022/11/05 11:24:39;;;;;;;;;;;;;;;14.61;60.43;101741.94;5013934;28;20026;-45
2022/11/05 11:27:27;;;;;;;6.45;2.50;;;;;;;14.80;60.17;101735.13;5013757;28;19909;-45
2022/11/05 11:29:59;;;;;;;4.80;2.10;;;;;;;15.01;59.05;101746.69;5014227;28;20026;-45
2022/11/05 11:32:30;;;;;;;7.38;2.55;;;;;;;14.87;59.52;101734.34;5014087;28;20525;-46
2022/11/05 11:34:57;;;;;;;5.53;2.40;;;;;;;14.72;59.47;101735.03;5013832;28;20030;-47
2022/11/05 11:37:29;;;;;;;4.57;2.03;;;;;;;15.15;58.65;101746.84;5013792;28;20498;-46
2022/11/05 11:40:04;;;;;;;4.22;2.15;;;;;;;15.08;58.41;101746.75;5013519;28;20025;-46
2022/11/05 11:42:33;;;;;;;5.30;2.35;;;;;;;15.19;57.93;101750.34;5013225;28;20109;-45
2022/11/05 11:45:04;;;;;;;6.65;2.30;;;;;;;15.39;57.70;101738.25;5013342;28;20017;-44
2022/11/05 11:47:32;;;;;;;5.93;2.25;;;;;;;15.07;57.26;101739.75;5013376;28;20034;-45
2022/11/05 11:49:59;;;;;;;6.60;2.45;;;;;;;14.97;58.04;101744.03;5013149;28;20402;-45
2022/11/05 11:52:27;;;;;;;6.90;2.72;;;;;;;14.98;58.43;101743.19;5013167;28;20030;-43
2022/11/05 11:55:05;;;;;;;6.25;2.50;;;;;;;15.14;57.91;101750.31;5012912;28;20508;-46
2022/11/05 11:57:42;;;;;;;5.72;2.33;;;;;;;15.25;58.02;101743.41;5012945;28;20025;-47
2022/11/05 12:00:08;;;;;;;6.75;2.50;;;;;;;15.33;58.62;101741.72;5014348;28;20032;-43
2022/11/05 12:02:58;;;;;;;9.38;2.88;;;;;;;15.72;57.48;101741.16;5013135;28;20021;-50
2022/11/05 12:05:34;;;;;;;8.82;2.65;;;;;;;15.58;57.28;101748.06;5014984;28;20022;-51
2022/11/05 12:08:23;;;;;;;6.93;2.70;;;;;;;15.55;57.90;101742.81;5014431;28;20382;-44
2022/11/05 12:11:03;;;;;;;5.45;2.50;;;;;;;15.90;57.27;101727.25;4984006;28;20038;-44
2022/11/05 12:13:43;;;;;;;8.18;2.88;;;;;;;15.66;57.73;101717.47;5012436;28;20030;-46
2022/11/05 12:16:23;;;;;;;7.30;3.00;;;;;;;15.49;58.30;101736.59;5012724;28;20210;-43
2022/11/05 12:18:56;;;;;;;7.75;3.08;;;;;;;15.76;57.18;101724.53;5012381;28;20037;-42